• Join FlightAware (Why Join?)
  • Login
  • US Flag 
08:13AM EST


 

Airport Tracker/Info


-or-


 

Live Flight TrackerFlight Track Log ✈ JAL33 ✈ 14-Oct-2013 ✈ RJTT / HND - VTBS / BKK

Flight Track Log - Related Links

Times and Time Zones

All times are in EDT time to prevent confusion due to time zone crossing. See the JAL33 flight status page for this flight to view local times or setup timezone preferences in your user account.

Time Position Orientation Groundspeed Altitude Reporting Facility
EDT Latitude Longitude Course Direction KTS MPH feet Rate Location/Type
12:52PM 35.5310 139.8120 39° Northeast 135 155  Level FlightAware
12:52PM 35.5440 139.8270 43° Northeast 158 182 600 2,040 Climbing FlightAware
12:53PM 35.5550 139.8390 42° Northeast 160 184 1,600 2,760 Climbing FlightAware
12:53PM 35.5670 139.8520 41° Northeast 163 188 2,400 2,220 Climbing FlightAware
12:53PM 35.5710 139.8600 58° Northeast 167 192 2,700 1,560 Climbing FlightAware
12:53PM 35.5720 139.8620 58° Northeast 164 189 2,800 1,620 Climbing FlightAware
12:53PM 35.5720 139.8660 90° East 170 196 3,000 1,380 Climbing FlightAware
12:54PM 35.5640 139.8880 114° Southeast 200 230 3,400 1,380 Climbing FlightAware
12:54PM 35.5550 139.8940 152° Southeast 222 255 3,700 1,560 Climbing FlightAware
12:54PM 35.5500 139.8950 171° South 228 262 3,800 1,260 Climbing FlightAware
12:54PM 35.5410 139.8950 180° South 240 276 4,000 1,680 Climbing FlightAware
12:54PM 35.5360 139.8930 198° South 234 269 4,200 2,220 Climbing FlightAware
12:54PM 35.5250 139.8870 204° Southwest 243 280 4,600 2,760 Climbing FlightAware
12:54PM 35.5190 139.8820 214° Southwest 251 289 4,900 2,880 Climbing FlightAware
12:55PM 35.5010 139.8640 219° Southwest 259 298 5,800 2,760 Climbing FlightAware
12:55PM 35.4810 139.8440 219° Southwest 272 313 6,800 3,360 Climbing FlightAware
12:55PM 35.4630 139.8260 219° Southwest 268 308 8,000 3,180 Climbing FlightAware
12:56PM 35.4320 139.7950 219° Southwest 275 316 9,400 2,760 Climbing FlightAware
12:56PM 35.4210 139.7840 219° Southwest 279 321 9,900 1,680 Climbing FlightAware
12:57PM 35.3780 139.7410 219° Southwest 329 379 10,800 1,320 Climbing FlightAware
12:57PM 35.3320 139.6980 217° Southwest 363 418 11,600 1,620 Climbing FlightAware
12:58PM 35.2840 139.6540 217° Southwest 385 443 12,700 2,280 Climbing FlightAware
12:59PM 35.2240 139.5990 217° Southwest 391 450 14,500 2,640 Climbing FlightAware
12:59PM 35.1730 139.5500 218° Southwest 404 465 16,000 2,400 Climbing FlightAware
12:59PM 35.1550 139.5230 231° Southwest 403 464 16,500 2,220 Climbing FlightAware
01:00PM 35.1170 139.4570 235° Southwest 410 472 17,900 2,400 Climbing FlightAware
01:01PM 35.0750 139.3930 231° Southwest 418 481 19,300 2,280 Climbing FlightAware
01:01PM 35.0340 139.3260 233° Southwest 417 480 20,600 2,100 Climbing FlightAware
01:02PM 34.9940 139.2590 234° Southwest 423 487 21,800 2,040 Climbing FlightAware
01:02PM 34.9470 139.1800 234° Southwest 433 498 23,200 2,100 Climbing FlightAware
01:03PM 34.9040 139.1100 233° Southwest 436 502 24,500 1,980 Climbing FlightAware
01:04PM 34.8610 139.0390 234° Southwest 441 507 25,600 1,800 Climbing FlightAware
01:04PM 34.8130 138.9610 233° Southwest 442 509 26,800 1,800 Climbing FlightAware
01:05PM 34.7750 138.8980 234° Southwest 446 513 27,700 2,160 Climbing FlightAware
01:05PM 34.7330 138.8290 233° Southwest 439 505 29,200 2,400 Climbing FlightAware
01:06PM 34.6900 138.7590 233° Southwest 434 499 30,500 1,980 Climbing FlightAware
01:07PM 34.6480 138.6920 233° Southwest 437 503 31,600 1,860 Climbing FlightAware
01:07PM 34.6050 138.6220 233° Southwest 433 498 32,700 1,800 Climbing FlightAware
01:08PM 34.5630 138.5530 234° Southwest 427 491 33,700 1,080 Climbing FlightAware
01:08PM 34.5210 138.4870 232° Southwest 411 473 34,000 240 Climbing FlightAware
01:09PM 34.4800 138.4200 233° Southwest 409 471 34,000  Level FlightAware
01:10PM 34.4350 138.3480 233° Southwest 410 472 34,000  Level FlightAware
01:10PM 34.3890 138.2740 233° Southwest 415 478 34,000  Level FlightAware
01:11PM 34.3440 138.2020 233° Southwest 425 489 34,000  Level FlightAware
01:12PM 34.2950 138.1230 233° Southwest 425 489 34,000  Level FlightAware
01:12PM 34.2550 138.0600 232° Southwest 421 484 34,000  Level FlightAware
01:13PM 34.2120 137.9910 233° Southwest 416 479 34,000  Level FlightAware
01:13PM 34.1720 137.9280 233° Southwest 417 480 34,000  Level FlightAware
01:14PM 34.1290 137.8590 233° Southwest 422 486 34,000  Level FlightAware
01:15PM 34.0820 137.7850 233° Southwest 423 487 34,000  Level FlightAware
01:15PM 34.0460 137.7280 233° Southwest 422 486 34,000  Level FlightAware
01:16PM 34.0150 137.6800 232° Southwest 422 486 34,000  Level FlightAware
01:16PM 33.9690 137.6070 233° Southwest 422 486 34,000  Level FlightAware
01:17PM 33.9250 137.5390 232° Southwest 421 484 34,000  Level FlightAware
01:17PM 33.8860 137.4770 233° Southwest 422 486 34,000  Level FlightAware
01:18PM 33.8430 137.4090 233° Southwest 422 486 34,000  Level FlightAware
01:19PM 33.7960 137.3360 232° Southwest 423 487 34,000  Level FlightAware
01:19PM 33.7540 137.2710 232° Southwest 422 486 34,000  Level FlightAware
01:20PM 33.7120 137.2060 232° Southwest 423 487 34,000  Level FlightAware
01:20PM 33.6710 137.1410 233° Southwest 425 489 34,000  Level FlightAware
01:21PM 33.6260 137.0710 232° Southwest 425 489 34,000  Level FlightAware
01:21PM 33.5900 137.0170 231° Southwest 426 490 34,000  Level FlightAware
01:22PM 33.5420 136.9420 232° Southwest 427 491 34,000  Level FlightAware
01:23PM 33.5040 136.8830 232° Southwest 427 491 34,000  Level FlightAware
01:23PM 33.4570 136.8120 232° Southwest 429 494 34,000  Level FlightAware
01:24PM 33.4130 136.7430 233° Southwest 424 488 34,000  Level FlightAware
01:24PM 33.3710 136.6790 232° Southwest 425 489 34,000  Level FlightAware
01:25PM 33.3210 136.6030 232° Southwest 427 491 34,000  Level FlightAware
01:26PM 33.2810 136.5410 232° Southwest 426 490 34,000  Level FlightAware
01:26PM 33.2440 136.4850 232° Southwest 426 490 34,000  Level FlightAware
01:27PM 33.1910 136.4050 232° Southwest 427 491 34,000  Level FlightAware
01:28PM 33.1360 136.3210 232° Southwest 433 498 34,000  Level FlightAware
01:28PM 33.0990 136.2650 232° Southwest 433 498 34,000  Level FlightAware
01:29PM 33.0500 136.1890 232° Southwest 432 497 34,000  Level FlightAware
01:29PM 33.0120 136.1320 232° Southwest 432 497 34,000  Level FlightAware
01:30PM 32.9630 136.0580 232° Southwest 433 498 34,000  Level FlightAware
01:30PM 32.9260 136.0030 231° Southwest 434 499 34,000  Level FlightAware
01:31PM 32.8820 135.9370 232° Southwest 434 499 34,000  Level FlightAware
01:32PM 32.8390 135.8730 231° Southwest 434 499 34,000  Level FlightAware
01:32PM 32.7880 135.7960 232° Southwest 433 498 34,000  Level FlightAware
01:33PM 32.7450 135.7310 232° Southwest 434 499 34,000  Level FlightAware
01:33PM 32.7080 135.6760 231° Southwest 435 501 34,000  Level FlightAware
01:34PM 32.6570 135.6000 231° Southwest 437 503 34,000  Level FlightAware
01:35PM 32.6130 135.5350 231° Southwest 438 504 34,000  Level FlightAware
01:35PM 32.5750 135.4780 232° Southwest 439 505 34,000  Level FlightAware
01:36PM 32.5330 135.4150 232° Southwest 439 505 34,000  Level FlightAware
01:36PM 32.4800 135.3380 231° Southwest 440 506 34,000  Level FlightAware
01:37PM 32.4420 135.2820 231° Southwest 441 507 34,000  Level FlightAware
01:37PM 32.3980 135.2160 232° Southwest 441 507 34,000  Level FlightAware
01:38PM 32.3520 135.1490 231° Southwest 442 509 34,000  Level FlightAware
01:39PM 32.3010 135.0730 232° Southwest 442 509 34,000  Level FlightAware
01:39PM 32.2490 134.9980 231° Southwest 442 509 34,000  Level FlightAware
01:40PM 32.2150 134.9470 232° Southwest 443 510 34,000  Level FlightAware
01:41PM 32.1550 134.8590 231° Southwest 443 510 34,000  Level FlightAware
01:41PM 32.1160 134.8020 231° Southwest 443 510 34,000  Level FlightAware
01:42PM 32.0500 134.7060 231° Southwest 443 510 34,000  Level FlightAware
01:43PM 32.0040 134.6390 231° Southwest 445 512 34,000  Level FlightAware
01:43PM 31.9420 134.5480 231° Southwest 445 512 34,000  Level FlightAware
01:44PM 31.8890 134.4730 230° Southwest 445 512 34,000  Level FlightAware
01:45PM 31.8490 134.4130 232° Southwest 445 512 34,000  Level FlightAware
01:45PM 31.8130 134.3580 232° Southwest 445 512 34,000  Level FlightAware
01:46PM 31.7740 134.3000 232° Southwest 445 512 34,000  Level FlightAware
01:46PM 31.7340 134.2400 232° Southwest 445 512 34,000  Level FlightAware
01:47PM 31.7080 134.2010 232° Southwest 445 512 34,000  Level FlightAware
01:47PM 31.6680 134.1410 232° Southwest 445 512 34,000  Level FlightAware
01:48PM 31.5610 134.0020 228° Southwest 445 512 34,000  Level FlightAware
01:49PM 31.5110 133.9310 230° Southwest 445 512 34,000  Level FlightAware
01:50PM 31.4700 133.8740 230° Southwest 445 512 34,000  Level FlightAware
01:50PM 31.4300 133.8180 230° Southwest 445 512 34,000  Level FlightAware
01:51PM 31.3890 133.7610 230° Southwest 445 512 34,000  Level FlightAware
01:51PM 31.3510 133.7080 230° Southwest 445 512 34,000  Level FlightAware
01:52PM 31.3090 133.6500 230° Southwest 445 512 34,000  Level FlightAware
01:53PM 31.2670 133.5900 231° Southwest 445 512 34,000  Level FlightAware
01:53PM 31.2280 133.5370 229° Southwest 445 512 34,000  Level FlightAware
01:54PM 31.1860 133.4770 231° Southwest 445 512 34,000  Level FlightAware
01:54PM 31.1460 133.4220 230° Southwest 445 512 34,000  Level FlightAware
01:55PM 31.1060 133.3660 230° Southwest 445 512 34,000  Level FlightAware
01:55PM 31.0760 133.3250 229° Southwest 445 512 34,000  Level FlightAware
01:56PM 31.0350 133.2670 230° Southwest 445 512 34,000  Level FlightAware
01:57PM 30.9930 133.2090 230° Southwest 445 512 34,000  Level FlightAware
01:57PM 30.9530 133.1530 230° Southwest 445 512 34,000  Level FlightAware
01:58PM 30.9090 133.0920 230° Southwest 445 512 34,000  Level FlightAware
01:59PM 30.7500 132.8610 231° Southwest 450 518 34,000  Level FlightAware
01:59PM 30.7090 132.8040 230° Southwest 450 518 34,000  Level FlightAware
02:00PM 30.6540 132.7270 230° Southwest 451 519 34,000  Level FlightAware
02:00PM 30.6010 132.6550 229° Southwest 452 520 34,000  Level FlightAware
02:01PM 30.5490 132.5820 230° Southwest 453 521 34,000  Level FlightAware
02:02PM 30.5100 132.5280 230° Southwest 453 521 34,000  Level FlightAware
02:02PM 30.4490 132.4460 229° Southwest 454 522 34,000  Level FlightAware
02:03PM 30.4020 132.3810 230° Southwest 454 522 34,000  Level FlightAware
02:03PM 30.3570 132.3200 229° Southwest 455 524 34,000  Level FlightAware
02:04PM 30.3100 132.2550 230° Southwest 456 525 34,000  Level FlightAware
02:05PM 30.2650 132.1960 229° Southwest 456 525 34,000  Level FlightAware
02:05PM 30.2040 132.1300 223° Southwest 459 528 34,000  Level FlightAware
02:06PM 30.1420 132.0750 217° Southwest 460 529 34,000  Level FlightAware
02:06PM 30.0730 132.0150 217° Southwest 461 531 34,000  Level FlightAware
02:07PM 30.0180 131.9680 217° Southwest 462 532 34,000  Level FlightAware
02:08PM 29.9610 131.9180 217° Southwest 462 532 34,000  Level FlightAware
02:08PM 29.8940 131.8590 217° Southwest 464 534 34,000  Level FlightAware
02:09PM 29.8320 131.8050 217° Southwest 464 534 34,000  Level FlightAware
02:10PM 29.7780 131.7590 216° Southwest 464 534 34,000  Level FlightAware
02:10PM 29.7060 131.6930 219° Southwest 723 832 34,000  Level FlightAware
02:11PM 29.6300 131.6260 217° Southwest 468 539 34,000  Level FlightAware
02:11PM 29.5780 131.5790 218° Southwest 468 539 34,000  Level FlightAware
02:12PM 29.5220 131.5290 218° Southwest 468 539 34,000  Level FlightAware
02:13PM 29.4680 131.4800 218° Southwest 468 539 34,000  Level FlightAware
02:13PM 29.4140 131.4320 218° Southwest 468 539 34,000  Level FlightAware
02:14PM 29.3620 131.3850 218° Southwest 468 539 34,000  Level FlightAware
02:15PM 29.3100 131.3390 218° Southwest 468 539 34,000  Level FlightAware
02:15PM 29.2580 131.2920 218° Southwest 468 539 34,000  Level FlightAware
02:16PM 29.2050 131.2450 218° Southwest 468 539 34,000  Level FlightAware
02:16PM 29.1530 131.1980 218° Southwest 468 539 34,000  Level FlightAware
02:17PM 29.1010 131.1520 218° Southwest 468 539 34,000  Level FlightAware
02:18PM 29.0490 131.1050 218° Southwest 468 539 34,000  Level FlightAware
02:18PM 28.9970 131.0580 218° Southwest 468 539 34,000  Level FlightAware
02:19PM 28.9440 131.0120 217° Southwest 468 539 34,000  Level FlightAware
02:19PM 28.8910 130.9640 218° Southwest 468 539 34,000  Level FlightAware
02:20PM 28.8360 130.9150 218° Southwest 468 539 34,000  Level FlightAware
02:23PM 28.7330 130.6261 248° West  Level Estimated
02:24PM 28.6913 130.5099 248° West  Level Estimated
02:25PM 28.6496 130.3939 248° West  Level Estimated
02:26PM 28.6077 130.2779 248° West  Level Estimated
02:27PM 28.5658 130.1620 248° West  Level Estimated
02:28PM 28.5237 130.0462 248° West  Level Estimated
02:29PM 28.4816 129.9305 248° West  Level Estimated
02:30PM 28.4394 129.8149 247° West  Level Estimated
02:31PM 28.3970 129.6994 247° West  Level Estimated
02:32PM 28.3546 129.5839 247° West  Level Estimated
02:33PM 28.3120 129.4686 247° West  Level Estimated
02:34PM 28.2694 129.3533 247° West  Level Estimated
02:35PM 28.2267 129.2382 247° West  Level Estimated
02:36PM 28.1838 129.1231 247° West  Level Estimated
02:36PM 26.9730 129.3590 247° West 492 566 34,000  Level FlightAware
02:36PM 26.9100 129.3050 217° Southwest 492 566 34,000  Level FlightAware
02:37PM 26.8430 129.2510 216° Southwest 492 566 34,000  Level FlightAware
02:38PM 26.7540 129.1790 216° Southwest 492 566 34,000  Level FlightAware
02:38PM 26.6980 129.1330 216° Southwest 492 566 34,000  Level FlightAware
02:39PM 26.6140 129.0630 217° Southwest 491 565 34,000  Level FlightAware
02:40PM 26.5580 129.0180 216° Southwest 491 565 34,000  Level FlightAware
02:40PM 26.4760 128.9500 217° Southwest 596 686 34,000  Level FlightAware
02:41PM 26.3890 128.8790 216° Southwest 493 567 34,000  Level FlightAware
02:42PM 26.3190 128.8220 216° Southwest 493 567 34,000  Level FlightAware
02:42PM 26.2560 128.7710 216° Southwest 494 568 34,000  Level FlightAware
02:43PM 26.1800 128.7090 216° Southwest 494 568 34,000  Level FlightAware
02:44PM 26.1220 128.6620 216° Southwest 494 568 34,000  Level FlightAware
02:44PM 26.0420 128.5970 216° Southwest 495 570 34,000  Level FlightAware
02:45PM 25.9530 128.5240 216° Southwest 496 571 34,000  Level FlightAware
02:46PM 25.8730 128.4600 216° Southwest 495 570 34,000  Level FlightAware
02:46PM 25.8160 128.4140 216° Southwest 495 570 34,000  Level FlightAware
02:47PM 25.7370 128.3500 216° Southwest 495 570 34,000  Level FlightAware
02:48PM 25.6600 128.2890 216° Southwest 495 570 34,000  Level FlightAware
02:48PM 25.6010 128.2410 216° Southwest 495 570 34,000  Level FlightAware
02:49PM 25.5310 128.1850 216° Southwest 496 571 34,000 480 Level FlightAware
02:49PM 25.4730 128.1390 216° Southwest 496 571 34,500 720 Climbing FlightAware
02:50PM 25.3900 128.0720 216° Southwest 495 570 35,000 840 Climbing FlightAware
02:50PM 25.3370 128.0290 216° Southwest 494 568 35,700 540 Climbing FlightAware
02:51PM 25.2790 127.9830 216° Southwest 494 568 35,700  Level FlightAware
02:52PM 25.2250 127.9400 216° Southwest 494 568 35,700  Level FlightAware
02:52PM 25.1690 127.8940 217° Southwest 494 568 35,700  Level FlightAware
02:53PM 25.1120 127.8490 216° Southwest 494 568 35,700  Level FlightAware
02:53PM 25.0550 127.8040 216° Southwest 494 568 35,700  Level FlightAware
02:54PM 24.9990 127.7580 217° Southwest 494 568 35,700  Level FlightAware
02:55PM 24.9410 127.7120 216° Southwest 494 568 35,700  Level FlightAware
02:55PM 24.8860 127.6680 216° Southwest 494 568 35,700  Level FlightAware
02:56PM 24.8290 127.6220 216° Southwest 494 568 35,700  Level FlightAware
02:56PM 24.7730 127.5770 216° Southwest 494 568 35,700  Level FlightAware
02:57PM 24.7160 127.5320 216° Southwest 494 568 35,700  Level FlightAware
02:58PM 24.6580 127.4850 216° Southwest 494 568 35,700  Level FlightAware
02:58PM 24.6040 127.4430 215° Southwest 494 568 35,700  Level FlightAware
02:59PM 24.5460 127.3960 216° Southwest 494 568 35,700  Level FlightAware
02:59PM 24.4880 127.3500 216° Southwest 494 568 35,700  Level FlightAware
03:02PM 24.4171 127.1168 252° West  Level Estimated
03:03PM 24.3821 127.0022 251° West  Level Estimated
03:04PM 24.3470 126.8877 251° West  Level Estimated
03:05PM 24.3119 126.7732 251° West  Level Estimated
03:06PM 24.2766 126.6588 251° West  Level Estimated
03:07PM 24.2413 126.5444 251° West  Level Estimated
03:08PM 24.2059 126.4302 251° West  Level Estimated
03:09PM 24.1704 126.3159 251° West  Level Estimated
03:10PM 24.1348 126.2018 251° West  Level Estimated
03:11PM 24.0991 126.0877 251° West  Level Estimated
03:12PM 24.0634 125.9737 251° West  Level Estimated
03:13PM 24.0275 125.8597 251° West  Level Estimated
03:14PM 23.9916 125.7458 251° West  Level Estimated
03:15PM 23.9556 125.6320 251° West  Level Estimated
03:16PM 23.9195 125.5182 251° West  Level Estimated
03:17PM 23.8833 125.4045 251° West  Level Estimated
03:18PM 23.8471 125.2909 251° West  Level Estimated
03:19PM 23.8107 125.1773 251° West  Level Estimated
03:20PM 23.7743 125.0638 251° West  Level Estimated
03:21PM 23.7378 124.9503 251° West  Level Estimated
03:22PM 23.7012 124.8369 251° West  Level Estimated
03:23PM 23.6645 124.7236 251° West  Level Estimated
03:24PM 23.6277 124.6104 251° West  Level Estimated
03:25PM 23.5909 124.4971 250° West  Level Estimated
03:26PM 23.5540 124.3840 250° West  Level Estimated
03:27PM 23.5170 124.2710 250° West  Level Estimated
03:28PM 23.4799 124.1579 250° West  Level Estimated
03:29PM 23.4427 124.0450 250° West  Level Estimated
03:30PM 23.4055 123.9321 250° West  Level Estimated
03:31PM 23.3681 123.8193 250° West  Level Estimated
03:32PM 23.3307 123.7066 250° West  Level Estimated
03:33PM 23.2932 123.5939 250° West  Level Estimated
03:34PM 23.2557 123.4812 250° West  Level Estimated
03:35PM 23.2180 123.3687 250° West  Level Estimated
03:36PM 23.1800 123.2553 250° West  Level Estimated
03:37PM 23.1418 123.1419 250° West  Level Estimated
03:38PM 23.1036 123.0286 250° West  Level Estimated
03:39PM 23.0654 122.9154 250° West  Level Estimated
03:40PM 23.0270 122.8023 250° West  Level Estimated
03:41PM 22.9886 122.6892 250° West  Level Estimated
03:42PM 22.9501 122.5762 250° West  Level Estimated
03:43PM 22.9114 122.4632 250° West  Level Estimated
03:44PM 22.8728 122.3503 250° West  Level Estimated
03:45PM 22.8340 122.2375 250° West  Level Estimated
03:46PM 22.7952 122.1247 250° West  Level Estimated
03:47PM 22.7563 122.0120 249° West  Level Estimated
03:48PM 22.7173 121.8994 249° West  Level Estimated
03:49PM 22.6782 121.7868 249° West  Level Estimated
03:50PM 22.6390 121.6743 249° West  Level Estimated
03:51PM 22.5998 121.5619 249° West  Level Estimated
03:52PM 22.5605 121.4495 249° West  Level Estimated
03:53PM 22.5211 121.3372 249° West  Level Estimated
03:54PM 22.4816 121.2250 249° West  Level Estimated
03:55PM 22.4421 121.1128 249° West  Level Estimated
03:56PM 22.4024 121.0007 249° West  Level Estimated
03:57PM 22.3627 120.8886 249° West  Level Estimated
03:58PM 22.3230 120.7766 249° West  Level Estimated
03:59PM 22.2831 120.6647 249° West  Level Estimated
04:00PM 22.2432 120.5528 249° West  Level Estimated
04:01PM 22.2032 120.4410 249° West  Level Estimated
04:02PM 22.1631 120.3293 249° West  Level Estimated
04:03PM 22.1229 120.2176 249° West  Level Estimated
04:04PM 22.0827 120.1060 249° West  Level Estimated
04:04PM 16.5970 122.5920 249° West 500 575 36,000  Level FlightAware
04:04PM 16.5510 122.5280 233° Southwest 500 575 36,000  Level FlightAware
04:05PM 22.0424 119.9945 249° West  Level Estimated
04:05PM 16.4930 122.4480 233° Southwest 500 575 36,000  Level FlightAware
04:06PM 16.4420 122.3810 232° Southwest 500 575 36,000  Level FlightAware
04:06PM 16.4050 122.3500 219° Southwest 497 572 36,000  Level FlightAware
04:07PM 16.3290 122.3090 207° Southwest 497 572 36,000  Level FlightAware
04:07PM 16.2560 122.2750 204° Southwest 499 574 36,000  Level FlightAware
04:08PM 16.1800 122.2410 203° Southwest 500 575 36,000  Level FlightAware
04:08PM 16.1130 122.2110 203° Southwest 500 575 36,000  Level FlightAware
04:09PM 16.0390 122.1780 203° Southwest 502 578 36,000  Level FlightAware
04:09PM 15.9580 122.1420 203° Southwest 502 578 36,000  Level FlightAware
04:10PM 15.8820 122.1070 204° Southwest 502 578 36,000  Level FlightAware
04:11PM 15.8160 122.0780 203° Southwest 501 577 36,000  Level FlightAware
04:11PM 15.7190 122.0340 204° Southwest 500 575 36,000  Level FlightAware
04:12PM 15.6430 121.9990 204° Southwest 500 575 36,000  Level FlightAware
04:12PM 15.5740 121.9690 203° Southwest 500 575 36,000  Level FlightAware
04:13PM 15.4980 121.9340 204° Southwest 499 574 36,000  Level FlightAware
04:14PM 15.4290 121.9040 203° Southwest 498 573 36,000  Level FlightAware
04:14PM 15.3480 121.8590 208° Southwest 501 577 36,000  Level FlightAware
04:15PM 15.3230 121.8300 228° Southwest 500 575 36,000  Level FlightAware
04:15PM 15.2800 121.7500 241° Southwest 501 577 36,000  Level FlightAware
04:16PM 15.2410 121.6760 241° Southwest 501 577 36,000  Level FlightAware
04:16PM 15.2010 121.6000 241° Southwest 502 578 36,000  Level FlightAware
04:17PM 15.1650 121.5320 241° Southwest 502 578 36,000  Level FlightAware
04:18PM 15.1230 121.4520 241° Southwest 503 579 36,000  Level FlightAware
04:18PM 15.0870 121.3840 241° Southwest 503 579 36,000  Level FlightAware
04:19PM 15.0490 121.3120 241° Southwest 505 581 36,000  Level FlightAware
04:19PM 15.0070 121.2320 241° Southwest 506 582 36,000  Level FlightAware
04:20PM 14.9670 121.1550 242° Southwest 506 582 36,000  Level FlightAware
04:20PM 14.9280 121.0810 241° Southwest 507 583 36,000  Level FlightAware
04:21PM 14.8890 121.0050 242° Southwest 506 582 36,000  Level FlightAware
04:22PM 14.8540 120.9370 242° Southwest 507 583 36,000  Level FlightAware
04:22PM 14.8170 120.8670 241° Southwest 509 586 36,000  Level FlightAware
04:23PM 14.7740 120.7820 242° Southwest 507 583 36,000  Level FlightAware
04:23PM 14.7350 120.7060 242° Southwest 508 585 36,000  Level FlightAware
04:24PM 14.6960 120.6290 242° Southwest 508 585 36,000  Level FlightAware
04:25PM 14.6600 120.5590 242° Southwest 509 586 36,000  Level FlightAware
04:25PM 14.6210 120.4830 242° Southwest 509 586 36,000  Level FlightAware
04:26PM 14.5860 120.4140 242° Southwest 509 586 36,000  Level FlightAware
04:26PM 14.5460 120.3360 242° Southwest 508 585 36,000  Level FlightAware
04:27PM 14.5020 120.2620 238° Southwest 508 585 36,000  Level FlightAware
04:27PM 14.4570 120.1870 238° Southwest 508 585 36,000  Level FlightAware
04:28PM 14.4140 120.1140 239° Southwest 510 587 36,000  Level FlightAware
04:29PM 14.3720 120.0410 239° Southwest 510 587 36,000  Level FlightAware
04:29PM 14.3310 119.9710 239° Southwest 510 587 36,000  Level FlightAware
04:30PM 14.2910 119.9030 239° Southwest 511 588 36,000  Level FlightAware
04:30PM 14.2460 119.8240 240° Southwest 511 588 36,000  Level FlightAware
04:31PM 14.2020 119.7490 239° Southwest 512 589 36,000  Level FlightAware
04:32PM 14.1580 119.6730 239° Southwest 511 588 36,000  Level FlightAware
04:32PM 14.1170 119.6030 239° Southwest 510 587 36,000  Level FlightAware
04:33PM 14.0780 119.5360 239° Southwest 511 588 36,000  Level FlightAware
04:33PM 14.0310 119.4580 238° Southwest 510 587 36,000  Level FlightAware
04:34PM 13.9890 119.3860 239° Southwest 511 588 36,000  Level FlightAware
04:34PM 13.9440 119.3080 239° Southwest 511 588 36,000  Level FlightAware
04:35PM 13.9070 119.2450 239° Southwest 510 587 36,000  Level FlightAware
04:36PM 13.8600 119.1650 239° Southwest 510 587 36,000  Level FlightAware
04:36PM 13.8180 119.0940 239° Southwest 510 587 36,000 240 Level FlightAware
04:37PM 13.7740 119.0200 239° Southwest 507 583 36,300 1,020 Climbing FlightAware
04:37PM 13.7330 118.9510 239° Southwest 502 578 37,200 1,380 Climbing FlightAware
04:38PM 13.6930 118.8820 239° Southwest 502 578 37,900 660 Climbing FlightAware
04:39PM 13.6490 118.8080 239° Southwest 506 582 38,000 60 Climbing FlightAware
04:39PM 13.5860 118.7000 239° Southwest 507 583 38,000  Level FlightAware
04:40PM 13.5550 118.6200 248° West 507 583 38,000  Level FlightAware
04:41PM 13.5120 118.5160 247° West 509 586 38,000  Level FlightAware
04:41PM 13.4820 118.4440 247° West 509 586 38,000  Level FlightAware
04:42PM 13.4480 118.3550 249° West 510 587 38,000  Level FlightAware
04:43PM 13.4030 118.2460 247° West 510 587 38,000  Level FlightAware
04:43PM 13.3670 118.1560 248° West 510 587 38,000  Level FlightAware
04:44PM 13.3370 118.0830 247° West 509 586 38,000  Level FlightAware
04:45PM 13.2980 117.9860 248° West 508 585 38,000  Level FlightAware
04:45PM 13.2710 117.9200 247° West 507 583 38,000  Level FlightAware
04:46PM 13.2270 117.8130 247° West 507 583 38,000  Level FlightAware
04:47PM 13.1920 117.7270 247° West 509 586 38,000  Level FlightAware
04:47PM 13.1640 117.6590 247° West 508 585 38,000  Level FlightAware
04:48PM 13.1320 117.5790 248° West 508 585 38,000  Level FlightAware
04:49PM 13.0960 117.4760 250° West 507 583 38,000  Level FlightAware
04:49PM 13.0730 117.4070 251° West 507 583 38,000  Level FlightAware
04:50PM 13.0490 117.3350 251° West 507 583 38,000  Level FlightAware
04:50PM 13.0250 117.2650 251° West 507 583 38,000  Level FlightAware
04:51PM 13.0020 117.1960 251° West 507 583 38,000  Level FlightAware
04:52PM 12.9790 117.1260 251° West 507 583 38,000  Level FlightAware
04:52PM 12.9570 117.0600 251° West 507 583 38,000  Level FlightAware
04:53PM 12.9330 116.9910 250° West 507 583 38,000  Level FlightAware
04:53PM 12.9100 116.9210 251° West 507 583 38,000  Level FlightAware
04:54PM 12.8860 116.8490 251° West 507 583 38,000  Level FlightAware
04:55PM 12.8620 116.7780 251° West 507 583 38,000  Level FlightAware
04:55PM 12.8380 116.7080 251° West 507 583 38,000  Level FlightAware
04:56PM 12.8150 116.6390 251° West 507 583 38,000  Level FlightAware
04:56PM 12.7910 116.5670 251° West 507 583 38,000  Level FlightAware
04:57PM 12.7610 116.4780 251° West 507 583 38,000  Level FlightAware
04:58PM 12.7380 116.4090 251° West 507 583 38,000 -120 Level FlightAware
05:00PM 12.7554 116.2162 275° West  Level Estimated
05:01PM 12.7657 116.1017 275° West  Level Estimated
05:02PM 12.7760 115.9872 275° West  Level Estimated
05:03PM 12.7861 115.8727 275° West  Level Estimated
05:04PM 12.7963 115.7581 275° West  Level Estimated
05:05PM 12.8064 115.6435 275° West  Level Estimated
05:06PM 12.8164 115.5290 275° West  Level Estimated
05:07PM 12.8264 115.4144 275° West  Level Estimated
05:08PM 12.8364 115.2998 275° West  Level Estimated
05:09PM 12.8462 115.1852 275° West  Level Estimated
05:10PM 12.8561 115.0706 275° West  Level Estimated
05:11PM 12.8659 114.9560 275° West  Level Estimated
05:12PM 12.8756 114.8414 275° West  Level Estimated
05:13PM 12.8853 114.7268 275° West  Level Estimated
05:14PM 12.8949 114.6121 275° West  Level Estimated
05:15PM 12.9045 114.4975 275° West  Level Estimated
05:16PM 12.9141 114.3828 275° West  Level Estimated
05:17PM 12.9236 114.2682 275° West  Level Estimated
05:18PM 12.9330 114.1535 275° West  Level Estimated
05:19PM 12.9424 114.0388 275° West  Level Estimated
05:20PM 12.9517 113.9241 275° West  Level Estimated
05:21PM 12.9610 113.8094 275° West  Level Estimated
05:22PM 12.9703 113.6947 275° West  Level Estimated
05:23PM 12.9795 113.5800 275° West  Level Estimated
05:24PM 12.9886 113.4653 275° West  Level Estimated
05:25PM 12.9977 113.3505 275° West  Level Estimated
05:26PM 13.0067 113.2358 275° West  Level Estimated
05:27PM 13.0157 113.1210 275° West  Level Estimated
05:28PM 13.0246 113.0063 275° West  Level Estimated
05:29PM 13.0335 112.8915 275° West  Level Estimated
05:30PM 13.0424 112.7767 275° West  Level Estimated
05:31PM 13.0512 112.6620 275° West  Level Estimated
05:32PM 13.0599 112.5472 274° West  Level Estimated
05:33PM 13.0686 112.4324 274° West  Level Estimated
05:34PM 13.0772 112.3176 274° West  Level Estimated
05:35PM 13.0858 112.2027 274° West  Level Estimated
05:36PM 13.0944 112.0879 274° West  Level Estimated
05:37PM 13.1028 111.9731 274° West  Level Estimated
05:38PM 13.1113 111.8583 274° West  Level Estimated
05:39PM 13.1197 111.7434 274° West  Level Estimated
05:40PM 13.1280 111.6282 274° West  Level Estimated
05:41PM 13.1363 111.5130 274° West  Level Estimated
05:42PM 13.1446 111.3979 274° West  Level Estimated
05:43PM 13.1528 111.2827 274° West  Level Estimated
05:43PM 11.0700 110.1310 274° West 485 558 33,900  Level FlightAware
05:44PM 11.0650 110.0580 266° West 485 558 34,700 660 Climbing FlightAware
05:44PM 11.0610 109.9850 267° West 485 558 34,700 1,260 Level FlightAware
05:45PM 11.0710 109.9280 280° West 487 560 35,900 2,100 Climbing FlightAware
05:45PM 11.0830 109.8510 279° West 488 562 36,600 1,260 Climbing FlightAware
05:46PM 11.0960 109.7660 279° West 487 560 37,400 1,260 Climbing FlightAware
05:47PM 11.1090 109.6760 278° West 486 559 38,200 1,080 Climbing FlightAware
05:47PM 11.1190 109.5950 277° West 487 560 38,800 900 Climbing FlightAware
05:48PM 11.1210 109.4840 271° West 487 560 39,500 780 Climbing FlightAware
05:49PM 11.1200 109.4000 269° West 487 560 40,000 420 Climbing FlightAware
05:49PM 11.1190 109.3210 269° West 489 563 40,000  Level FlightAware
05:50PM 11.1180 109.2360 269° West 489 563 40,000  Level FlightAware
05:50PM 11.1160 109.1670 268° West 487 560 40,000  Level FlightAware
05:51PM 11.1150 109.0790 269° West 485 558 40,000  Level FlightAware
05:51PM 11.1130 108.9930 269° West 485 558 40,000  Level FlightAware
05:52PM 11.1120 108.9210 269° West 485 558 40,000  Level FlightAware
05:53PM 11.1100 108.8410 269° West 485 558 40,000  Level FlightAware
05:53PM 11.1070 108.7610 268° West 485 558 40,000  Level FlightAware
05:54PM 11.1050 108.6830 269° West 485 558 40,000  Level FlightAware
05:54PM 11.1020 108.5990 268° West 485 558 40,000  Level FlightAware
05:55PM 11.1000 108.5200 269° West 486 559 40,000  Level FlightAware
05:56PM 11.0970 108.4360 268° West 486 559 40,000  Level FlightAware
05:56PM 11.0950 108.3620 268° West 486 559 40,000  Level FlightAware
05:57PM 11.0920 108.2770 268° West 486 559 40,000  Level FlightAware
05:57PM 11.0900 108.2030 268° West 487 560 40,000  Level FlightAware
05:58PM 11.0870 108.1180 268° West 487 560 40,000  Level FlightAware
05:58PM 11.0850 108.0390 269° West 488 562 40,000  Level FlightAware
05:59PM 11.0820 107.9610 268° West 489 563 40,000  Level FlightAware
06:00PM 11.0800 107.8800 269° West 490 564 40,000  Level FlightAware
06:00PM 11.0770 107.8010 268° West 490 564 40,000  Level FlightAware
06:01PM 11.0740 107.7200 268° West 490 564 40,000  Level FlightAware
06:01PM 11.0720 107.6360 269° West 491 565 40,000  Level FlightAware
06:02PM 11.0690 107.5610 268° West 491 565 40,000  Level FlightAware
06:03PM 11.0660 107.4770 268° West 491 565 40,000  Level FlightAware
06:03PM 11.0640 107.3950 269° West 490 564 40,000  Level FlightAware
06:04PM 11.0610 107.3100 268° West 491 565 40,000  Level FlightAware
06:04PM 11.0580 107.2360 268° West 491 565 40,000  Level FlightAware
06:05PM 11.0550 107.1530 268° West 491 565 40,000  Level FlightAware
06:05PM 11.0520 107.0700 268° West 489 563 40,000  Level FlightAware
06:06PM 11.0490 106.9870 268° West 489 563 40,000  Level FlightAware
06:07PM 11.0570 106.9270 278° West 480 552 40,000  Level FlightAware
06:07PM 11.0750 106.8530 284° West 480 552 40,000  Level FlightAware
06:08PM 11.0930 106.7750 283° West 479 551 40,000  Level FlightAware
06:08PM 11.1110 106.7020 284° West 479 551 40,000  Level FlightAware
06:09PM 11.1290 106.6260 284° West 479 551 40,000  Level FlightAware
06:09PM 11.1460 106.5540 284° West 479 551 40,000  Level FlightAware
06:10PM 11.1660 106.4700 284° West 479 551 40,000  Level FlightAware
06:11PM 11.1820 106.3980 283° West 479 551 40,000  Level FlightAware
06:11PM 11.2070 106.2930 284° West 479 551 40,000  Level FlightAware
06:12PM 11.2260 106.2140 284° West 479 551 40,000  Level FlightAware
06:12PM 11.2430 106.1420 284° West 479 551 40,000  Level FlightAware
06:13PM 11.2610 106.0630 283° West 479 551 40,000  Level FlightAware
06:14PM 11.2800 105.9820 283° West 478 550 40,000  Level FlightAware
06:14PM 11.2960 105.9150 284° West 479 551 40,000  Level FlightAware
06:15PM 11.3150 105.8330 283° West 479 551 40,000  Level FlightAware
06:15PM 11.3330 105.7570 284° West 479 551 40,000  Level FlightAware
06:16PM 11.3520 105.6760 283° West 479 551 40,000  Level FlightAware
06:17PM 11.3680 105.6060 283° West 479 551 40,000  Level FlightAware
06:17PM 11.3860 105.5280 283° West 479 551 40,000  Level FlightAware
06:18PM 11.4050 105.4440 283° West 479 551 40,000  Level FlightAware
06:18PM 11.4210 105.3780 284° West 480 552 40,000  Level FlightAware
06:19PM 11.4390 105.3010 283° West 480 552 40,000  Level FlightAware
06:19PM 11.4570 105.2190 283° West 481 554 40,000  Level FlightAware
06:20PM 11.4760 105.1380 283° West 482 555 40,000  Level FlightAware
06:21PM 11.4930 105.0660 284° West 482 555 40,000  Level FlightAware
06:21PM 11.5120 104.9840 283° West 484 557 40,000  Level FlightAware
06:22PM 11.5300 104.9040 283° West 484 557 40,000  Level FlightAware
06:22PM 11.5490 104.8370 286° West 481 554 40,000  Level FlightAware
06:23PM 11.5790 104.7550 290° West 480 552 40,000  Level FlightAware
06:24PM 11.6080 104.6810 292° West 480 552 40,000  Level FlightAware
06:24PM 11.6350 104.6130 292° West 481 554 40,000  Level FlightAware
06:25PM 11.6640 104.5410 292° West 482 555 40,000  Level FlightAware
06:25PM 11.6940 104.4640 292° West 483 556 40,000  Level FlightAware
06:26PM 11.7250 104.3860 292° West 483 556 40,000  Level FlightAware
06:26PM 11.7500 104.3220 292° West 484 557 40,000  Level FlightAware
06:27PM 11.7800 104.2470 292° West 484 557 40,000  Level FlightAware
06:28PM 11.8120 104.1650 292° West 485 558 40,000  Level FlightAware
06:28PM 11.8410 104.0900 292° West 485 558 40,000  Level FlightAware
06:29PM 11.8830 103.9840 292° West 485 558 40,000  Level FlightAware
06:30PM 11.9140 103.9040 292° West 486 559 40,000  Level FlightAware
06:30PM 11.9460 103.8230 292° West 486 559 40,000  Level FlightAware
06:31PM 11.9750 103.7480 292° West 487 560 40,000  Level FlightAware
06:32PM 12.0090 103.6600 292° West 487 560 40,000  Level FlightAware
06:32PM 12.0450 103.5700 292° West 486 559 40,000  Level FlightAware
06:33PM 12.0670 103.5100 291° West 486 559 40,000  Level FlightAware
06:34PM 12.1040 103.4180 292° West 485 558 40,000  Level FlightAware
06:34PM 12.1370 103.3320 291° West 486 559 40,000  Level FlightAware
06:35PM 12.1740 103.2370 292° West 486 559 40,000  Level FlightAware
06:35PM 12.2010 103.1690 292° West 487 560 40,000  Level FlightAware
06:36PM 12.2310 103.0910 291° West 487 560 40,000  Level FlightAware
06:37PM 12.2600 103.0150 291° West 486 559 40,000  Level FlightAware
06:37PM 12.2870 102.9460 292° West 485 558 40,000  Level FlightAware
06:38PM 12.3180 102.8660 292° West 485 558 40,000  Level FlightAware
06:38PM 12.3450 102.7960 292° West 484 557 40,000  Level FlightAware
06:39PM 12.3740 102.7220 292° West 484 557 40,000  Level FlightAware
06:40PM 12.4060 102.6400 292° West 483 556 40,000  Level FlightAware
06:40PM 12.4330 102.5720 292° West 483 556 40,000  Level FlightAware
06:41PM 12.4620 102.4960 291° West 483 556 40,000  Level FlightAware
06:41PM 12.4910 102.4240 292° West 483 556 40,000  Level FlightAware
06:42PM 12.5170 102.3550 291° West 482 555 40,000 -480 Level FlightAware
06:42PM 12.5470 102.2790 292° West 480 552 39,500 -1,500 Descending FlightAware
06:43PM 12.5760 102.2050 292° West 478 550 38,300 -2,340 Descending FlightAware
06:44PM 12.6030 102.1290 290° West 481 554 36,700 -2,520 Descending FlightAware
06:44PM 12.6150 102.0480 279° West 484 557 35,300 -2,880 Descending FlightAware
06:45PM 12.6280 101.9630 279° West 499 574 33,300 -3,240 Descending FlightAware
06:45PM 12.6400 101.8890 279° West 509 586 31,600 -3,240 Descending FlightAware
06:46PM 12.6600 101.8390 292° West 506 582 30,400 -2,940 Descending FlightAware
06:46PM 12.6900 101.7940 304° West 497 572 29,400 -2,640 Descending FlightAware
06:47PM 12.7440 101.7400 316° Northwest 475 547 27,900 -2,880 Descending FlightAware
06:47PM 12.7980 101.6880 317° Northwest 456 525 26,200 -2,700 Descending FlightAware
06:48PM 12.8520 101.6370 317° Northwest 441 507 24,800 -2,160 Descending FlightAware
06:48PM 12.9030 101.5890 317° Northwest 428 493 23,700 -1,980 Descending FlightAware
06:49PM 12.9490 101.5450 317° Northwest 418 481 22,600 -2,160 Descending FlightAware
06:50PM 13.0060 101.4980 321° Northwest 410 472 21,200 -2,280 Descending FlightAware
06:50PM 13.0620 101.4580 325° Northwest 406 467 19,800 -2,520 Descending FlightAware
06:51PM 13.1170 101.4200 326° Northwest 405 466 18,200 -2,700 Descending FlightAware
06:51PM 13.1710 101.3830 326° Northwest 403 464 16,700 -2,460 Descending FlightAware
06:52PM 13.2200 101.3490 326° Northwest 396 456 15,500 -2,340 Descending FlightAware
06:53PM 13.2770 101.3090 326° Northwest 389 448 14,000 -2,160 Descending FlightAware
06:53PM 13.3250 101.2770 327° Northwest 383 441 13,000 -1,740 Descending FlightAware
06:54PM 13.3740 101.2430 326° Northwest 374 430 12,100 -1,380 Descending FlightAware
06:54PM 13.4270 101.2060 326° Northwest 348 400 11,400 -1,080 Descending FlightAware
06:55PM 13.4760 101.1710 325° Northwest 322 371 10,800 -900 Descending FlightAware
06:55PM 13.5130 101.1450 326° Northwest 304 350 10,400 -780 Descending FlightAware
06:56PM 13.5520 101.1180 326° Northwest 286 329 10,000 -900 Descending FlightAware
06:56PM 13.5760 101.1020 327° Northwest 285 328 9,600 -960 Descending FlightAware
06:57PM 13.6000 101.0850 325° Northwest 282 325 9,300 -1,140 Descending FlightAware
06:57PM 13.6150 101.0740 325° Northwest 281 323 8,900 -1,560 Descending FlightAware
06:57PM 13.6370 101.0590 326° Northwest 280 322 8,400 -1,320 Descending FlightAware
06:58PM 13.6590 101.0430 325° Northwest 278 320 8,000 -1,200 Descending FlightAware
06:58PM 13.6840 101.0260 327° Northwest 274 315 7,500 -1,440 Descending FlightAware
06:58PM 13.7050 101.0110 325° Northwest 273 314 7,000 -1,500 Descending FlightAware
06:59PM 13.7280 100.9950 326° Northwest 271 312 6,500 -1,320 Descending FlightAware
06:59PM 13.7500 100.9800 326° Northwest 269 310 6,100 -1,500 Descending FlightAware
06:59PM 13.7700 100.9660 326° Northwest 269 310 5,500 -1,680 Descending FlightAware
07:00PM 13.7940 100.9490 325° Northwest 261 300 4,900 -1,380 Descending FlightAware
07:00PM 13.8140 100.9350 326° Northwest 258 297 4,500 -780 Descending FlightAware
07:00PM 13.8340 100.9210 326° Northwest 245 282 4,400 -480 Descending FlightAware
07:01PM 13.8520 100.9090 327° Northwest 231 266 4,200 -540 Descending FlightAware
07:01PM 13.8650 100.8980 321° Northwest 220 253 4,100 -480 Descending FlightAware
07:01PM 13.8700 100.8890 300° West 216 249 4,000 -960 Descending FlightAware
07:01PM 13.8730 100.8800 289° West 216 249 3,800 -1,020 Descending FlightAware
07:02PM 13.8790 100.8580 286° West 210 242 3,500 -1,080 Descending FlightAware
07:02PM 13.8840 100.8410 287° West 208 239 3,100 -900 Descending FlightAware
07:02PM 13.8870 100.8250 281° West 198 228 3,000 -540 Descending FlightAware
07:03PM 13.8800 100.8070 248° West 207 238 2,800 -900 Descending FlightAware
07:03PM 13.8750 100.8030 218° Southwest 208 239 2,600 -1,080 Descending FlightAware
07:03PM 13.8590 100.7920 214° Southwest 204 235 2,300 -600 Descending FlightAware
07:03PM 13.8430 100.7820 211° Southwest 187 215 2,200 -420 Descending FlightAware
07:04PM 13.8360 100.7780 209° Southwest 184 212 2,100 -240 Descending FlightAware
07:04PM 13.8200 100.7740 194° South 184 212 2,100  Level FlightAware
07:04PM 13.8020 100.7690 195° South 187 215 2,100 -480 Level FlightAware
07:05PM 13.7860 100.7650 194° South 171 197 1,800 -900 Descending FlightAware
07:05PM 13.7690 100.7600 196° South 160 184 1,500 -840 Descending FlightAware
07:05PM 13.7540 100.7560 195° South 146 168 1,200 -840 Descending FlightAware
07:06PM 13.7410 100.7530 193° South 139 160 900 -720 Descending FlightAware
07:06PM 13.7320 100.7510 192° South 142 163 800 -720 Descending FlightAware
07:06PM 13.7190 100.7470 197° South 141 162 500 -660 Descending FlightAware
07:07PM 13.7120 100.7450 196° South 140 161 400 -120 Descending FlightAware
07:07PM 13.6960 100.7410 194° South 140 161 400  Level FlightAware
07:10PM 13.6811 100.7473 158° South  Level Estimated